Time;durP1;ratioP1;P1;durP2;ratioP2;P2;SDS_P1;SDS_P2;PMS_P1;PMS_P2;Temp;Humidity;BMP_temperature;BMP_pressure;BME280_temperature;BME280_humidity;BME280_pressure;Samples;Min_cycle;Max_cycle;Signal;HPM_P1;HPM_P2
2022/09/12 00:01:21;;;;;;;3.88;1.63;;;14.90;99.90;;;;;;5024102;28;20050;-86
2022/09/12 00:03:57;;;;;;;9.73;1.97;;;14.90;99.90;;;;;;5005324;28;20133;-85
2022/09/12 00:06:27;;;;;;;5.13;1.75;;;14.80;99.90;;;;;;5007860;28;20053;-86
2022/09/12 00:08:56;;;;;;;3.70;2.17;;;14.90;99.90;;;;;;5011522;28;20045;-86
2022/09/12 00:11:23;;;;;;;4.15;1.77;;;14.80;99.90;;;;;;5012089;28;20137;-86
2022/09/12 00:13:50;;;;;;;5.82;1.70;;;14.80;99.90;;;;;;5009545;28;20080;-86
2022/09/12 00:16:23;;;;;;;4.57;1.90;;;14.80;99.90;;;;;;5007898;28;20042;-87
2022/09/12 00:18:51;;;;;;;3.45;1.70;;;14.80;99.90;;;;;;5010060;28;20050;-86
2022/09/12 00:21:19;;;;;;;4.63;1.58;;;14.80;99.90;;;;;;5013492;28;20049;-85
2022/09/12 00:23:46;;;;;;;7.55;1.80;;;14.70;99.90;;;;;;5011820;28;20053;-85
2022/09/12 00:26:13;;;;;;;1.90;1.70;;;14.70;99.90;;;;;;5011131;28;20238;-85
2022/09/12 00:28:40;;;;;;;5.45;2.10;;;14.70;99.90;;;;;;5008971;28;20054;-85
2022/09/12 00:31:11;;;;;;;11.48;2.05;;;14.70;99.90;;;;;;5010335;28;20045;-86
2022/09/12 00:33:39;;;;;;;3.88;1.60;;;14.70;99.90;;;;;;5013325;28;20053;-85
2022/09/12 00:36:08;;;;;;;4.97;1.60;;;14.70;99.90;;;;;;5020221;28;20058;-86
2022/09/12 00:38:37;;;;;;;4.60;2.30;;;14.70;99.90;;;;;;5012139;28;20056;-86
2022/09/12 00:41:05;;;;;;;7.88;1.60;;;14.70;99.90;;;;;;5014387;28;20046;-85
2022/09/12 00:43:37;;;;;;;6.35;1.73;;;14.70;99.90;;;;;;5020253;28;20041;-85
2022/09/12 00:46:14;;;;;;;4.93;2.00;;;14.70;99.90;;;;;;5017520;28;20042;-85
2022/09/12 00:49:08;;;;;;;3.25;1.95;;;14.60;99.90;;;;;;5016580;28;20420;-86
2022/09/12 00:51:36;;;;;;;5.50;2.00;;;14.70;99.90;;;;;;5003332;28;20060;-86
2022/09/12 00:54:09;;;;;;;3.35;2.00;;;14.60;99.90;;;;;;5018882;28;20100;-85
2022/09/12 00:56:37;;;;;;;2.53;2.03;;;14.60;99.90;;;;;;5013243;28;20080;-84
2022/09/12 00:59:17;;;;;;;2.30;1.88;;;14.60;99.90;;;;;;5013477;28;20100;-85
2022/09/12 01:01:47;;;;;;;3.83;1.95;;;14.50;99.90;;;;;;5013202;28;20057;-85
2022/09/12 01:04:16;;;;;;;4.28;2.08;;;14.50;99.90;;;;;;5010079;28;20056;-85
2022/09/12 01:06:44;;;;;;;7.43;2.58;;;14.50;99.90;;;;;;5015269;28;20076;-86
2022/09/12 01:09:14;;;;;;;3.35;2.33;;;14.50;99.90;;;;;;5013951;28;20077;-84
2022/09/12 01:11:41;;;;;;;;;;;14.50;99.90;;;;;;5017863;28;20054;-85
2022/09/12 01:14:08;;;;;;;3.42;2.08;;;14.50;99.90;;;;;;5015164;28;19928;-85
2022/09/12 01:16:35;;;;;;;15.32;3.70;;;14.50;99.90;;;;;;5016433;28;20046;-86
2022/09/12 01:19:32;;;;;;;4.35;2.28;;;14.50;99.90;;;;;;5026540;28;20046;-86
2022/09/12 01:22:12;;;;;;;3.70;2.25;;;14.40;99.90;;;;;;5024200;28;20538;-85
2022/09/12 01:25:29;;;;;;;4.03;2.53;;;14.40;99.90;;;;;;5005777;28;20460;-85
2022/09/12 01:28:18;;;;;;;3.88;2.00;;;14.40;99.90;;;;;;5013937;28;20056;-85
2022/09/12 01:31:11;;;;;;;4.90;1.65;;;14.40;99.90;;;;;;5013152;28;20049;-84
2022/09/12 01:33:44;;;;;;;4.30;2.47;;;14.40;99.90;;;;;;5009952;28;20056;-85
2022/09/12 01:36:36;;;;;;;3.88;1.90;;;14.40;99.90;;;;;;5010905;28;20046;-85
2022/09/12 01:39:11;;;;;;;5.53;2.35;;;14.20;99.90;;;;;;5013419;28;20136;-85
2022/09/12 01:42:05;;;;;;;5.45;2.35;;;14.30;99.90;;;;;;5015524;28;20047;-85
2022/09/12 01:44:48;;;;;;;5.28;1.90;;;14.30;99.90;;;;;;5014701;28;20057;-85
2022/09/12 01:47:50;;;;;;;2.85;1.90;;;14.20;99.90;;;;;;5014447;28;20046;-85
2022/09/12 01:50:40;;;;;;;4.03;1.85;;;14.20;99.90;;;;;;4982785;28;20057;-85
2022/09/12 01:53:13;;;;;;;6.85;2.22;;;14.10;99.90;;;;;;5018713;28;20042;-85
2022/09/12 01:56:21;;;;;;;3.45;1.98;;;14.20;99.90;;;;;;5012201;28;20050;-84
2022/09/12 01:59:06;;;;;;;2.30;2.10;;;14.10;99.90;;;;;;5008670;28;20053;-85
2022/09/12 02:01:40;;;;;;;4.38;2.00;;;14.00;99.90;;;;;;5013195;28;20076;-85
2022/09/12 02:04:24;;;;;;;2.20;1.95;;;14.00;99.90;;;;;;5016302;28;20056;-85
2022/09/12 02:07:00;;;;;;;8.93;2.80;;;14.00;99.90;;;;;;5021430;28;20053;-85
2022/09/12 02:09:35;;;;;;;5.18;2.30;;;14.00;99.90;;;;;;5013331;28;20050;-86
2022/09/12 02:12:04;;;;;;;7.70;3.38;;;14.00;99.90;;;;;;5011755;28;20085;-86
2022/09/12 02:14:36;;;;;;;5.85;2.67;;;14.00;99.90;;;;;;5028409;28;20039;-87
2022/09/12 02:17:19;;;;;;;6.30;3.03;;;13.90;99.90;;;;;;5032313;28;20071;-86
2022/09/12 02:19:51;;;;;;;3.72;2.40;;;13.90;99.90;;;;;;5032569;28;20480;-86
2022/09/12 02:22:21;;;;;;;4.65;2.50;;;13.90;99.90;;;;;;5012271;28;20048;-86
2022/09/12 02:24:52;;;;;;;3.42;2.08;;;13.90;99.90;;;;;;5013510;28;20535;-86
2022/09/12 02:27:31;;;;;;;4.75;2.70;;;13.90;99.90;;;;;;5010385;28;20049;-86
2022/09/12 02:29:58;;;;;;;3.63;2.70;;;14.00;99.90;;;;;;5009967;28;20058;-85
2022/09/12 02:32:25;;;;;;;8.75;2.78;;;14.00;99.90;;;;;;5008690;28;20061;-85
2022/09/12 02:34:58;;;;;;;4.15;2.22;;;14.00;99.90;;;;;;5011286;28;20052;-84
2022/09/12 02:37:30;;;;;;;2.30;1.90;;;13.90;99.90;;;;;;5014965;28;20043;-85
2022/09/12 02:39:58;;;;;;;6.50;2.20;;;13.90;99.90;;;;;;5011229;28;20049;-85
2022/09/12 02:42:25;;;;;;;4.78;2.40;;;13.90;99.90;;;;;;5013821;28;20080;-86
2022/09/12 02:44:55;;;;;;;2.50;2.28;;;13.90;99.90;;;;;;5011510;28;20050;-86
2022/09/12 02:47:40;;;;;;;4.18;2.22;;;13.90;99.90;;;;;;5015624;28;20053;-85
2022/09/12 02:50:08;;;;;;;3.25;2.50;;;13.90;99.90;;;;;;5013298;28;20389;-85
2022/09/12 02:52:35;;;;;;;8.38;2.70;;;13.90;99.90;;;;;;5011541;28;20989;-85
2022/09/12 02:55:05;;;;;;;5.13;3.13;;;13.90;99.90;;;;;;5014614;28;20046;-85
2022/09/12 02:57:32;;;;;;;5.10;3.40;;;13.80;99.90;;;;;;5014118;28;20054;-84
2022/09/12 03:00:00;;;;;;;3.67;2.53;;;13.80;99.90;;;;;;5014932;28;20053;-85
2022/09/12 03:02:57;;;;;;;4.03;2.58;;;13.70;99.90;;;;;;5014039;28;20072;-85
2022/09/12 03:05:34;;;;;;;6.40;2.60;;;13.70;99.90;;;;;;5014447;28;20052;-85
2022/09/12 03:08:12;;;;;;;4.72;2.30;;;13.70;99.90;;;;;;5012672;28;20456;-85
2022/09/12 03:11:17;;;;;;;3.83;2.88;;;13.70;99.90;;;;;;5011652;28;20053;-85
2022/09/12 03:14:03;;;;;;;7.78;2.65;;;13.70;99.90;;;;;;5030131;28;20064;-85
2022/09/12 03:16:43;;;;;;;11.25;3.05;;;13.70;99.90;;;;;;5011345;28;20046;-86
2022/09/12 03:19:33;;;;;;;6.50;3.50;;;13.60;99.90;;;;;;5010052;28;20068;-85
2022/09/12 03:22:42;;;;;;;3.17;2.80;;;13.70;99.90;;;;;;5007743;28;20053;-84
2022/09/12 03:25:19;;;;;;;5.78;2.30;;;13.60;99.90;;;;;;5011066;28;20077;-85
2022/09/12 03:28:05;;;;;;;3.00;2.60;;;13.60;99.90;;;;;;5011721;28;20049;-85
2022/09/12 03:30:37;;;;;;;6.05;2.65;;;13.60;99.90;;;;;;5014689;28;20455;-85
2022/09/12 03:33:04;;;;;;;4.43;2.75;;;13.60;99.90;;;;;;5014322;28;20049;-85
2022/09/12 03:35:31;;;;;;;7.57;3.70;;;13.60;99.90;;;;;;5011075;28;20054;-85
2022/09/12 03:37:57;;;;;;;5.05;2.72;;;13.60;99.90;;;;;;5010618;28;20041;-85
2022/09/12 03:40:24;;;;;;;7.18;2.85;;;13.60;99.90;;;;;;5014257;28;20049;-85
2022/09/12 03:42:51;;;;;;;5.88;3.45;;;13.60;99.90;;;;;;5016441;28;20057;-85
2022/09/12 03:45:17;;;;;;;7.13;3.03;;;13.60;99.90;;;;;;5009687;28;20416;-85
2022/09/12 03:47:44;;;;;;;2.72;2.35;;;13.60;99.90;;;;;;5013746;28;20057;-85
2022/09/12 03:50:11;;;;;;;5.25;3.08;;;13.60;99.90;;;;;;5012344;28;20056;-85
2022/09/12 03:52:37;;;;;;;6.20;2.75;;;13.50;99.90;;;;;;5014110;28;20053;-85
2022/09/12 03:55:05;;;;;;;3.25;2.28;;;13.50;99.90;;;;;;5013720;28;20041;-85
2022/09/12 03:57:31;;;;;;;5.03;2.78;;;13.50;99.90;;;;;;5013990;28;20056;-85
2022/09/12 03:59:58;;;;;;;4.05;2.20;;;13.50;99.90;;;;;;5013916;28;20571;-85
2022/09/12 04:02:25;;;;;;;8.63;2.75;;;13.50;99.90;;;;;;5010058;28;20057;-84
2022/09/12 04:04:52;;;;;;;5.03;2.60;;;13.40;99.90;;;;;;5002419;28;20078;-85
2022/09/12 04:07:19;;;;;;;6.97;3.28;;;13.40;99.90;;;;;;5009719;28;20050;-85
2022/09/12 04:09:45;;;;;;;5.95;2.80;;;13.40;99.90;;;;;;5012111;28;20054;-85
2022/09/12 04:12:12;;;;;;;6.93;2.83;;;13.40;99.90;;;;;;5015787;28;20050;-84
2022/09/12 04:14:39;;;;;;;6.10;2.75;;;13.40;99.90;;;;;;5014989;28;20500;-85
2022/09/12 04:17:07;;;;;;;4.78;2.92;;;13.40;99.90;;;;;;5011920;28;20042;-85
2022/09/12 04:19:34;;;;;;;6.90;2.53;;;13.40;99.90;;;;;;5010056;28;20054;-85
2022/09/12 04:22:01;;;;;;;4.20;2.95;;;13.40;99.90;;;;;;5013677;28;20443;-85
2022/09/12 04:24:27;;;;;;;6.65;2.78;;;13.30;99.90;;;;;;5015155;28;20129;-85
2022/09/12 04:26:54;;;;;;;5.07;2.80;;;13.30;99.90;;;;;;5014798;28;20496;-85
2022/09/12 04:29:21;;;;;;;4.43;2.35;;;13.30;99.90;;;;;;5013200;28;20049;-85
2022/09/12 04:31:48;;;;;;;3.88;2.75;;;13.30;99.90;;;;;;5015635;28;20068;-85
2022/09/12 04:34:14;;;;;;;5.60;2.90;;;13.30;99.90;;;;;;5014555;28;20057;-85
2022/09/12 04:36:42;;;;;;;7.45;2.90;;;13.30;99.90;;;;;;5012340;28;20045;-85
2022/09/12 04:39:10;;;;;;;5.80;3.20;;;13.30;99.90;;;;;;5010254;28;20053;-85
2022/09/12 04:41:38;;;;;;;7.85;2.90;;;13.20;99.90;;;;;;5011230;28;20050;-85
2022/09/12 04:44:13;;;;;;;10.07;2.67;;;13.30;99.90;;;;;;5010495;28;20046;-85
2022/09/12 04:46:45;;;;;;;4.75;2.60;;;13.30;99.90;;;;;;5021531;28;20042;-85
2022/09/12 04:49:15;;;;;;;4.07;2.70;;;13.20;99.90;;;;;;5007957;28;20050;-86
2022/09/12 04:51:42;;;;;;;4.53;3.03;;;13.30;99.90;;;;;;5009109;28;20532;-85
2022/09/12 04:54:15;;;;;;;6.72;2.97;;;13.20;99.90;;;;;;5012695;28;20060;-85
2022/09/12 04:56:45;;;;;;;4.53;2.97;;;13.20;99.90;;;;;;5013787;28;20050;-85
2022/09/12 04:59:14;;;;;;;6.30;3.20;;;13.20;99.90;;;;;;5010740;28;20133;-85
2022/09/12 05:01:41;;;;;;;4.70;3.05;;;13.10;99.90;;;;;;5014473;28;20233;-84
2022/09/12 05:04:14;;;;;;;4.40;3.03;;;13.10;99.90;;;;;;5012269;28;20392;-85
2022/09/12 05:06:42;;;;;;;5.95;3.80;;;13.10;99.90;;;;;;5008638;28;20049;-85
2022/09/12 05:09:13;;;;;;;6.53;5.50;;;13.10;99.90;;;;;;5009342;28;20046;-85
2022/09/12 05:11:42;;;;;;;11.48;7.28;;;13.10;99.90;;;;;;5008108;28;20704;-85
2022/09/12 05:14:29;;;;;;;11.35;7.65;;;13.10;99.90;;;;;;5009273;28;20065;-85
2022/09/12 05:16:59;;;;;;;11.63;7.20;;;13.00;99.90;;;;;;5010768;28;20060;-85
2022/09/12 05:19:27;;;;;;;9.10;5.88;;;13.00;99.90;;;;;;5005824;28;20056;-86
2022/09/12 05:21:54;;;;;;;9.55;6.05;;;13.00;99.90;;;;;;5015697;28;20053;-85
2022/09/12 05:24:21;;;;;;;7.28;4.95;;;13.10;99.90;;;;;;5015916;28;20523;-86
2022/09/12 05:26:47;;;;;;;9.02;4.00;;;13.00;99.90;;;;;;5017837;28;20058;-85
2022/09/12 05:29:14;;;;;;;7.82;3.60;;;13.10;99.90;;;;;;5016873;28;20133;-86
2022/09/12 05:31:41;;;;;;;10.90;4.80;;;13.10;99.90;;;;;;5005715;28;20061;-86
2022/09/12 05:34:09;;;;;;;5.60;3.42;;;13.10;99.90;;;;;;5019500;28;20083;-85
2022/09/12 05:36:36;;;;;;;7.93;3.60;;;13.10;99.90;;;;;;5017488;28;20069;-85
2022/09/12 05:39:03;;;;;;;10.27;3.40;;;13.00;99.90;;;;;;5019063;28;20057;-84
2022/09/12 05:41:32;;;;;;;5.55;3.10;;;13.10;99.90;;;;;;5011703;28;20077;-85
2022/09/12 05:44:01;;;;;;;9.68;3.90;;;13.10;99.90;;;;;;5013837;28;20057;-86
2022/09/12 05:46:30;;;;;;;3.47;2.80;;;13.10;99.90;;;;;;5014865;28;20353;-86
2022/09/12 05:49:04;;;;;;;4.05;3.10;;;13.10;99.90;;;;;;5010942;28;20057;-85
2022/09/12 05:51:33;;;;;;;6.78;2.75;;;13.10;99.90;;;;;;5016039;28;20057;-85
2022/09/12 05:54:02;;;;;;;3.55;2.58;;;13.20;99.90;;;;;;5006285;28;20054;-86
2022/09/12 05:56:32;;;;;;;5.35;2.78;;;13.20;99.90;;;;;;5007220;28;20064;-85
2022/09/12 05:59:05;;;;;;;3.15;2.70;;;13.20;99.90;;;;;;5010326;28;20054;-85
2022/09/12 06:01:33;;;;;;;7.72;3.00;;;13.20;99.90;;;;;;5012291;28;20046;-85
2022/09/12 06:04:02;;;;;;;4.10;2.55;;;13.30;99.90;;;;;;5023035;28;20042;-85
2022/09/12 06:06:30;;;;;;;4.18;2.35;;;13.30;99.90;;;;;;5010225;28;20054;-84
2022/09/12 06:08:59;;;;;;;4.07;2.97;;;13.30;99.90;;;;;;5012377;28;20072;-83
2022/09/12 06:11:29;;;;;;;2.83;2.33;;;13.40;99.90;;;;;;5013486;28;20057;-84
2022/09/12 06:13:57;;;;;;;4.25;2.65;;;13.40;99.90;;;;;;5012129;28;20045;-84
2022/09/12 06:16:26;;;;;;;3.53;2.22;;;13.40;99.90;;;;;;5014968;28;20063;-84
2022/09/12 06:19:01;;;;;;;5.57;2.78;;;13.40;99.90;;;;;;5012512;28;20057;-84
2022/09/12 06:21:33;;;;;;;3.20;2.10;;;13.40;99.90;;;;;;5013328;28;20057;-85
2022/09/12 06:24:00;;;;;;;4.25;2.72;;;13.40;99.90;;;;;;5014434;28;20045;-84
2022/09/12 06:26:28;;;;;;;2.33;2.05;;;13.50;99.90;;;;;;5013116;28;20116;-85
2022/09/12 06:28:56;;;;;;;4.03;2.45;;;13.50;99.90;;;;;;5011850;28;20058;-83
2022/09/12 06:31:28;;;;;;;2.95;2.40;;;13.50;99.90;;;;;;5014997;28;20057;-85
2022/09/12 06:33:56;;;;;;;6.70;2.33;;;13.50;99.90;;;;;;5016010;28;20050;-84
2022/09/12 06:36:26;;;;;;;6.07;2.50;;;13.60;99.90;;;;;;5015265;28;20076;-85
2022/09/12 06:39:04;;;;;;;2.72;2.40;;;13.60;99.90;;;;;;5004771;28;20046;-84
2022/09/12 06:41:31;;;;;;;5.25;2.65;;;13.60;99.90;;;;;;5013009;28;20488;-85
2022/09/12 06:43:59;;;;;;;3.33;2.30;;;13.60;99.90;;;;;;5012986;28;20046;-85
2022/09/12 06:46:26;;;;;;;5.45;2.63;;;13.60;99.90;;;;;;5012720;28;20053;-86
2022/09/12 06:48:58;;;;;;;4.70;2.58;;;13.70;99.90;;;;;;5015980;28;20622;-85
2022/09/12 06:51:26;;;;;;;4.70;2.10;;;13.70;99.90;;;;;;5016417;28;20064;-85
2022/09/12 06:53:56;;;;;;;4.07;3.03;;;13.80;99.90;;;;;;5013038;28;20073;-84
2022/09/12 06:56:27;;;;;;;4.82;3.10;;;13.80;99.90;;;;;;5014632;28;20558;-85
2022/09/12 06:58:58;;;;;;;10.30;4.93;;;13.90;99.90;;;;;;5012111;28;20053;-84
2022/09/12 07:01:30;;;;;;;11.40;7.18;;;13.90;99.90;;;;;;5012828;28;20054;-85
2022/09/12 07:03:59;;;;;;;12.75;7.25;;;14.00;99.90;;;;;;5013212;28;20050;-85
2022/09/12 07:06:30;;;;;;;13.77;8.85;;;14.00;99.90;;;;;;5014347;28;20050;-85
2022/09/12 07:08:59;;;;;;;11.00;8.23;;;14.10;99.90;;;;;;5012225;28;20050;-85
2022/09/12 07:11:30;;;;;;;12.75;8.85;;;14.10;99.90;;;;;;5012012;28;20108;-85
2022/09/12 07:13:58;;;;;;;13.82;9.57;;;14.20;99.90;;;;;;5011260;28;20050;-86
2022/09/12 07:16:25;;;;;;;15.60;9.38;;;14.20;99.90;;;;;;5014052;28;20054;-85
2022/09/12 07:18:55;;;;;;;13.77;9.80;;;14.30;99.90;;;;;;5011394;28;20090;-85
2022/09/12 07:21:22;;;;;;;10.63;8.32;;;14.40;99.90;;;;;;5006990;28;20060;-85
2022/09/12 07:23:50;;;;;;;10.75;8.73;;;14.40;99.90;;;;;;5007696;28;20054;-85
2022/09/12 07:26:17;;;;;;;14.82;9.70;;;14.50;99.90;;;;;;5010055;28;20073;-85
2022/09/12 07:28:44;;;;;;;11.85;9.18;;;14.50;99.90;;;;;;5014102;28;20060;-84
2022/09/12 07:31:17;;;;;;;15.32;9.02;;;14.70;99.90;;;;;;5012881;28;20053;-84
2022/09/12 07:33:44;;;;;;;12.20;8.30;;;14.70;99.90;;;;;;5014893;28;20132;-84
2022/09/12 07:36:13;;;;;;;13.60;9.20;;;14.80;99.90;;;;;;5014708;28;20060;-84
2022/09/12 07:38:41;;;;;;;10.87;9.23;;;14.90;99.90;;;;;;5016395;28;20109;-84
2022/09/12 07:41:20;;;;;;;14.13;9.27;;;15.00;99.90;;;;;;5021526;28;20069;-82
2022/09/12 07:43:47;;;;;;;12.43;9.30;;;15.10;99.90;;;;;;5018123;28;20042;-82
2022/09/12 07:46:14;;;;;;;17.63;9.45;;;15.10;99.90;;;;;;5016286;28;20060;-83
2022/09/12 07:48:40;;;;;;;12.10;9.77;;;15.20;99.90;;;;;;5022116;28;20056;-82
2022/09/12 07:51:09;;;;;;;14.82;10.55;;;15.30;99.90;;;;;;5021357;28;20047;-82
2022/09/12 07:53:39;;;;;;;16.45;10.93;;;15.30;99.90;;;;;;5018968;28;20132;-81
2022/09/12 07:56:09;;;;;;;22.35;13.60;;;15.40;99.90;;;;;;5021487;28;20061;-82
2022/09/12 07:58:37;;;;;;;15.55;10.63;;;15.50;99.90;;;;;;5022656;28;20060;-80
2022/09/12 08:01:09;;;;;;;15.85;10.32;;;15.50;99.90;;;;;;5021577;28;20411;-81
2022/09/12 08:03:37;;;;;;;23.27;12.77;;;15.60;99.90;;;;;;5023029;28;20114;-80
2022/09/12 08:06:09;;;;;;;16.98;11.30;;;15.70;99.90;;;;;;5025728;28;20053;-80
2022/09/12 08:08:37;;;;;;;17.38;11.65;;;15.70;99.90;;;;;;5025243;28;20046;-80
2022/09/12 08:11:07;;;;;;;15.88;10.73;;;15.70;99.90;;;;;;5021267;28;20049;-80
2022/09/12 08:13:35;;;;;;;15.88;11.43;;;15.80;99.90;;;;;;5017374;28;20056;-80
2022/09/12 08:16:10;;;;;;;12.98;11.00;;;15.80;99.90;;;;;;5017678;28;20053;-80
2022/09/12 08:18:37;;;;;;;11.93;9.65;;;15.90;99.90;;;;;;5015212;28;20104;-81
2022/09/12 08:21:07;;;;;;;15.52;10.23;;;16.00;99.90;;;;;;5013316;28;20046;-80
2022/09/12 08:23:33;;;;;;;13.40;10.07;;;16.00;99.90;;;;;;5016321;28;20053;-80
2022/09/12 08:26:02;;;;;;;13.52;9.82;;;16.10;99.90;;;;;;5019149;28;20132;-81
2022/09/12 08:28:34;;;;;;;12.20;9.27;;;16.20;99.90;;;;;;5020846;28;20060;-80
2022/09/12 08:31:06;;;;;;;14.05;10.30;;;16.20;99.90;;;;;;5016379;28;20129;-80
2022/09/12 08:33:33;;;;;;;12.60;9.25;;;16.20;99.90;;;;;;5018811;28;20049;-80
2022/09/12 08:36:04;;;;;;;14.45;9.68;;;16.30;99.90;;;;;;5019551;28;20050;-80
2022/09/12 08:38:32;;;;;;;12.38;9.10;;;16.30;99.90;;;;;;5016325;28;20054;-80
2022/09/12 08:41:17;;;;;;;12.40;9.30;;;16.40;99.90;;;;;;5014947;28;20487;-81
2022/09/12 08:43:52;;;;;;;17.60;9.27;;;16.40;99.90;;;;;;5015014;28;20056;-81
2022/09/12 08:46:41;;;;;;;12.35;10.05;;;16.40;99.90;;;;;;5014916;28;20599;-80
2022/09/12 08:49:14;;;;;;;13.65;9.50;;;16.50;99.90;;;;;;5014163;28;20050;-80
2022/09/12 08:51:41;;;;;;;13.50;10.35;;;16.50;99.90;;;;;;5016486;28;20516;-80
2022/09/12 08:54:23;;;;;;;12.82;9.13;;;16.60;99.90;;;;;;5015775;28;20050;-80
2022/09/12 08:56:52;;;;;;;13.57;9.73;;;16.60;99.90;;;;;;5019356;28;20049;-80
2022/09/12 08:59:18;;;;;;;14.77;9.80;;;16.70;99.90;;;;;;5017806;28;20049;-80
2022/09/12 09:01:50;;;;;;;10.55;8.38;;;16.70;99.90;;;;;;5021007;28;20427;-81
2022/09/12 09:04:47;;;;;;;9.50;7.65;;;16.80;99.90;;;;;;5019773;28;20052;-81
2022/09/12 09:07:31;;;;;;;8.38;7.07;;;16.90;99.90;;;;;;5019164;28;20054;-81
2022/09/12 09:10:16;;;;;;;13.15;8.40;;;17.00;99.90;;;;;;5018697;28;20050;-81
2022/09/12 09:12:43;;;;;;;9.88;7.43;;;17.10;99.90;;;;;;5019833;28;20061;-81
2022/09/12 09:15:28;;;;;;;13.02;7.22;;;17.10;99.90;;;;;;5018089;28;20054;-81
2022/09/12 09:18:05;;;;;;;13.40;8.38;;;17.20;99.90;;;;;;5020163;28;20142;-81
2022/09/12 09:20:42;;;;;;;9.70;7.32;;;17.20;99.90;;;;;;5016616;28;20610;-80
2022/09/12 09:23:20;;;;;;;13.43;8.48;;;17.20;99.90;;;;;;5018890;28;20051;-81
2022/09/12 09:26:03;;;;;;;9.35;7.18;;;17.20;99.90;;;;;;5017995;28;20046;-81
2022/09/12 09:28:29;;;;;;;8.43;6.15;;;17.30;99.90;;;;;;5020047;28;20443;-80
2022/09/12 09:30:57;;;;;;;8.13;6.72;;;17.30;99.90;;;;;;5020676;28;20073;-81
2022/09/12 09:33:29;;;;;;;10.13;7.63;;;17.30;99.90;;;;;;5018950;28;20077;-81
2022/09/12 09:36:04;;;;;;;9.30;6.95;;;17.30;99.90;;;;;;5020269;28;20058;-81
2022/09/12 09:38:48;;;;;;;8.02;6.72;;;17.30;99.90;;;;;;5020910;28;20049;-80
2022/09/12 09:41:36;;;;;;;9.63;6.30;;;17.40;99.90;;;;;;5020056;28;20050;-81
2022/09/12 09:44:03;;;;;;;6.38;5.68;;;17.40;99.90;;;;;;5019034;28;20416;-80
2022/09/12 09:46:31;;;;;;;7.85;6.05;;;17.50;99.90;;;;;;5016294;28;20398;-80
2022/09/12 09:49:01;;;;;;;10.90;6.13;;;17.60;99.90;;;;;;5018745;28;20057;-81
2022/09/12 09:51:35;;;;;;;7.80;5.82;;;17.60;99.90;;;;;;5020699;28;20128;-81
2022/09/12 09:54:13;;;;;;;7.93;5.63;;;17.60;99.90;;;;;;5019441;28;20050;-81
2022/09/12 09:56:41;;;;;;;7.93;5.43;;;17.60;99.90;;;;;;5021556;28;20046;-81
2022/09/12 09:59:14;;;;;;;8.20;5.40;;;17.70;99.90;;;;;;5040050;23;20050;-80
2022/09/12 10:01:50;;;;;;;7.53;4.82;;;17.70;99.90;;;;;;5007836;28;20056;-80
2022/09/12 10:04:26;;;;;;;6.20;4.78;;;17.70;99.90;;;;;;5008247;28;20050;-81
2022/09/12 10:06:58;;;;;;;9.10;4.75;;;17.80;99.90;;;;;;5013017;28;20042;-80
2022/09/12 10:09:27;;;;;;;6.20;4.55;;;17.80;99.90;;;;;;5010247;28;20049;-81
2022/09/12 10:11:55;;;;;;;7.15;5.18;;;17.90;99.90;;;;;;5003522;28;20053;-81
2022/09/12 10:14:38;;;;;;;7.82;4.32;;;17.90;99.90;;;;;;5005156;28;20046;-81
2022/09/12 10:17:48;;;;;;;5.90;3.58;;;17.90;99.90;;;;;;5004675;28;20050;-81
2022/09/12 10:20:30;;;;;;;7.05;4.65;;;17.90;99.90;;;;;;5009536;28;20049;-81
2022/09/12 10:23:02;;;;;;;5.78;4.20;;;18.00;99.90;;;;;;5012461;28;20053;-82
2022/09/12 10:25:29;;;;;;;6.28;4.20;;;18.10;99.90;;;;;;5014725;28;20522;-81
2022/09/12 10:27:59;;;;;;;5.97;3.72;;;18.20;99.90;;;;;;5014194;28;20432;-80
2022/09/12 10:30:29;;;;;;;5.97;4.15;;;18.30;99.90;;;;;;5009548;28;20465;-81
2022/09/12 10:33:05;;;;;;;6.60;3.90;;;18.30;99.90;;;;;;5010093;28;20113;-81
2022/09/12 10:35:43;;;;;;;7.95;4.18;;;18.40;99.90;;;;;;5009690;28;20121;-82
2022/09/12 10:38:22;;;;;;;8.25;2.92;;;18.40;99.90;;;;;;5012295;28;20057;-82
2022/09/12 10:41:13;;;;;;;6.40;3.55;;;18.40;99.90;;;;;;5003249;28;20046;-81
2022/09/12 10:43:41;;;;;;;4.47;2.75;;;18.50;99.90;;;;;;5004864;28;20049;-81
2022/09/12 10:46:13;;;;;;;5.32;2.55;;;18.50;99.90;;;;;;5013244;28;20069;-82
2022/09/12 10:48:41;;;;;;;6.50;3.35;;;18.50;99.90;;;;;;5014424;28;20046;-82
2022/09/12 10:51:23;;;;;;;4.90;3.30;;;18.60;99.90;;;;;;5007302;28;20526;-80
2022/09/12 10:54:10;;;;;;;7.70;3.25;;;18.60;99.90;;;;;;5008760;28;20054;-82
2022/09/12 10:57:10;;;;;;;5.53;3.25;;;18.70;99.90;;;;;;5009412;28;20054;-81
2022/09/12 10:59:45;;;;;;;6.20;2.63;;;18.80;99.90;;;;;;5016567;28;20504;-81
2022/09/12 11:02:51;;;;;;;5.78;2.90;;;18.80;99.90;;;;;;5009402;28;20117;-82
2022/09/12 11:06:00;;;;;;;3.22;2.40;;;18.90;99.90;;;;;;5006857;28;20097;-81
2022/09/12 11:08:59;;;;;;;6.63;3.13;;;19.00;99.90;;;;;;4995810;28;20052;-82
2022/09/12 11:11:41;;;;;;;3.58;2.38;;;19.00;99.90;;;;;;5010882;28;20061;-82
2022/09/12 11:14:23;;;;;;;6.25;2.40;;;19.20;99.90;;;;;;5007759;28;20046;-82
2022/09/12 11:17:29;;;;;;;5.30;2.53;;;19.20;99.90;;;;;;5013053;28;20137;-81
2022/09/12 11:20:11;;;;;;;3.33;2.00;;;19.30;99.90;;;;;;5008981;28;20057;-81
2022/09/12 11:22:52;;;;;;;3.28;2.40;;;19.30;99.90;;;;;;5016173;28;20068;-82
2022/09/12 11:25:34;;;;;;;6.72;2.25;;;19.30;99.90;;;;;;5007979;28;20049;-82
2022/09/12 11:28:33;;;;;;;5.05;2.60;;;19.50;99.90;;;;;;4998685;28;20452;-81
2022/09/12 11:31:13;;;;;;;6.38;2.17;;;19.80;99.90;;;;;;5005984;28;20072;-82
2022/09/12 11:33:43;;;;;;;3.28;2.42;;;19.70;99.90;;;;;;5008143;28;20088;-81
2022/09/12 11:36:31;;;;;;;3.90;2.45;;;19.70;99.90;;;;;;5012131;28;20046;-81
2022/09/12 11:39:19;;;;;;;2.92;2.00;;;19.80;99.90;;;;;;5009215;28;20061;-82
2022/09/12 11:41:53;;;;;;;4.25;2.90;;;19.80;99.90;;;;;;5009189;28;20225;-82
2022/09/12 11:44:22;;;;;;;2.50;2.30;;;19.80;99.90;;;;;;5005907;28;20428;-81
2022/09/12 11:46:49;;;;;;;7.07;2.28;;;19.80;99.90;;;;;;5008942;28;20426;-81
2022/09/12 11:49:46;;;;;;;5.15;2.10;;;19.90;99.90;;;;;;5007289;28;20058;-81
2022/09/12 11:52:19;;;;;;;2.95;1.77;;;19.90;99.90;;;;;;5006552;28;20050;-82
2022/09/12 11:55:04;;;;;;;5.38;2.13;;;20.00;99.90;;;;;;5014963;28;20057;-82
2022/09/12 11:57:42;;;;;;;2.72;2.03;;;20.00;99.90;;;;;;5015334;28;20053;-82
2022/09/12 12:00:23;;;;;;;2.50;1.70;;;20.10;99.90;;;;;;5009313;28;20232;-81
2022/09/12 12:02:56;;;;;;;;;;;20.10;99.90;;;;;;5004725;28;20049;-82
2022/09/12 12:05:56;;;;;;;5.13;1.60;;;20.00;99.90;;;;;;5011329;28;19975;-82
2022/09/12 12:08:24;;;;;;;;;;;20.20;99.90;;;;;;5014352;28;20053;-82
2022/09/12 12:10:59;;;;;;;5.35;1.70;;;20.20;99.90;;;;;;5013036;28;19926;-82
2022/09/12 12:13:34;;;;;;;3.22;1.58;;;20.20;99.90;;;;;;4998032;28;20057;-82
2022/09/12 12:16:11;;;;;;;4.70;1.50;;;20.40;99.90;;;;;;4998315;28;20468;-81
2022/09/12 12:18:38;;;;;;;2.05;1.50;;;20.60;99.90;;;;;;5007602;28;20053;-82
2022/09/12 12:21:38;;;;;;;1.50;1.40;;;20.50;99.90;;;;;;5005288;28;20045;-82
2022/09/12 12:24:07;;;;;;;2.47;1.42;;;20.50;99.90;;;;;;5001399;28;20444;-82
2022/09/12 12:26:39;;;;;;;4.57;1.75;;;20.50;99.90;;;;;;4998971;28;20057;-83
2022/09/12 12:29:12;;;;;;;2.67;1.60;;;20.60;99.90;;;;;;4996745;28;20053;-81
2022/09/12 12:31:57;;;;;;;2.45;1.20;;;20.70;99.90;;;;;;5001634;28;20054;-83
2022/09/12 12:34:29;;;;;;;2.85;1.00;;;20.80;99.90;;;;;;5009277;28;20054;-82
2022/09/12 12:36:58;;;;;;;2.83;1.00;;;20.80;99.90;;;;;;5003553;28;20065;-82
2022/09/12 12:39:30;;;;;;;1.13;0.82;;;20.80;99.90;;;;;;5008563;28;20054;-81
2022/09/12 12:42:00;;;;;;;2.15;1.10;;;20.80;99.90;;;;;;4998002;28;20252;-83
2022/09/12 12:44:47;;;;;;;;;;;20.80;99.90;;;;;;4998398;28;20375;-82
2022/09/12 12:47:24;;;;;;;1.08;0.75;;;20.90;99.90;;;;;;5007176;28;19928;-83
2022/09/12 12:50:04;;;;;;;1.42;1.00;;;20.90;99.90;;;;;;5006106;28;20055;-82
2022/09/12 12:52:32;;;;;;;;;;;20.90;99.90;;;;;;5006592;28;20050;-82
2022/09/12 12:55:03;;;;;;;2.47;1.00;;;21.00;99.90;;;;;;5013771;28;19921;-83
2022/09/12 12:57:52;;;;;;;1.85;0.80;;;21.00;99.90;;;;;;5011522;28;20054;-82
2022/09/12 13:00:19;;;;;;;1.50;1.00;;;21.10;99.90;;;;;;5002260;28;20393;-82
2022/09/12 13:03:11;;;;;;;1.48;0.90;;;21.20;99.90;;;;;;4997755;28;20057;-82
2022/09/12 13:05:44;;;;;;;1.23;0.65;;;21.30;99.90;;;;;;4992607;28;20142;-82
2022/09/12 13:08:17;;;;;;;1.63;0.90;;;21.50;99.90;;;;;;5003647;28;20054;-83
2022/09/12 13:10:59;;;;;;;3.00;0.73;;;21.60;99.90;;;;;;5007068;28;20057;-82
2022/09/12 13:13:29;;;;;;;0.90;0.63;;;21.60;99.90;;;;;;5004909;28;20058;-81
2022/09/12 13:15:57;;;;;;;2.75;0.75;;;21.60;99.90;;;;;;5008853;28;20064;-82
2022/09/12 13:18:45;;;;;;;1.10;0.57;;;21.50;99.90;;;;;;4999061;28;20062;-83
2022/09/12 13:21:15;;;;;;;1.42;0.77;;;21.50;99.90;;;;;;5010055;28;20062;-83